Mamou, Louisiana
Current Conditions -  °F | °C
As of 8:55 PM on Tuesday 25 Nov 2014 (Local Time) from KACP Reporting Station
Clear Clear  
Wind Chill: 35°   Ceiling: Unl
Heat Index: 35°   Visibility: 10mi
Dew Point: 34°   Wind: 0mph
Humidity: 95%   Direction: NA
Pressure: 30.25"   Gusts: NA
Location:  30.63°N, 92.42°W
Report Text: KACP 260255Z AUTO 00000KT 10SM CLR 02/01 A3025 RMK AO2 T00160009
Loading
Personal Weather Stations






























Interactive Weather Map New forecast layout! Learn more

10-Day Weather Forecast

Advertisements
Track Severe Weather on mobile